Time;durP1;ratioP1;P1;durP2;ratioP2;P2;SDS_P1;SDS_P2;PMS_P1;PMS_P2;Temp;Humidity;BMP_temperature;BMP_pressure;BME280_temperature;BME280_humidity;BME280_pressure;Samples;Min_cycle;Max_cycle;Signal;HPM_P1;HPM_P2
2022/06/08 00:00:44;;;;;;;7.82;5.78;;;;;;;15.49;94.25;100867.34;4957356;28;20047;-74
2022/06/08 00:03:22;;;;;;;9.45;6.20;;;;;;;15.44;94.45;100867.88;4924519;28;20031;-75
2022/06/08 00:05:47;;;;;;;8.70;6.22;;;;;;;15.41;94.05;100864.84;4952917;28;20069;-74
2022/06/08 00:08:13;;;;;;;8.25;5.97;;;;;;;15.37;93.80;100867.84;4944228;28;20110;-75
2022/06/08 00:10:39;;;;;;;8.50;5.82;;;;;;;15.35;93.54;100862.00;4942870;28;20764;-76
2022/06/08 00:13:05;;;;;;;7.63;5.15;;;;;;;15.33;93.46;100852.69;4959466;28;20031;-75
2022/06/08 00:15:31;;;;;;;8.27;5.78;;;;;;;15.30;93.09;100853.91;4931761;28;20038;-75
2022/06/08 00:17:57;;;;;;;9.70;5.82;;;;;;;15.27;92.89;100848.22;4943308;28;20035;-76
2022/06/08 00:20:22;;;;;;;8.07;5.40;;;;;;;15.24;92.89;100843.38;4941954;28;20039;-76
2022/06/08 00:22:48;;;;;;;11.23;5.90;;;;;;;15.19;92.67;100851.78;4958678;28;21845;-75
2022/06/08 00:25:14;;;;;;;8.75;4.95;;;;;;;15.17;92.59;100848.53;4945999;28;20023;-76
2022/06/08 00:27:40;;;;;;;8.27;5.65;;;;;;;15.13;92.92;100845.47;4940351;28;20042;-75
2022/06/08 00:30:07;;;;;;;8.05;5.13;;;;;;;15.08;92.94;100841.81;4946912;28;20126;-75
2022/06/08 00:32:33;;;;;;;9.00;5.50;;;;;;;15.01;93.07;100839.09;4961162;28;20038;-75
2022/06/08 00:35:00;;;;;;;10.50;5.65;;;;;;;14.91;93.13;100839.41;4944161;28;20039;-75
2022/06/08 00:37:26;;;;;;;8.18;5.70;;;;;;;14.86;93.30;100833.94;4940736;28;20027;-75
2022/06/08 00:39:52;;;;;;;10.15;5.63;;;;;;;14.81;93.27;100838.09;4944664;28;20038;-76
2022/06/08 00:42:18;;;;;;;8.25;5.35;;;;;;;14.77;93.60;100837.66;4942199;28;20043;-76
2022/06/08 00:44:49;;;;;;;9.38;5.35;;;;;;;14.75;93.69;100834.41;4943855;28;20037;-75
2022/06/08 00:47:18;;;;;;;9.23;4.80;;;;;;;14.74;93.85;100825.75;4958994;28;20050;-76
2022/06/08 00:50:12;;;;;;;7.78;5.53;;;;;;;14.73;93.68;100828.53;4956710;28;20083;-75
2022/06/08 00:52:38;;;;;;;5.32;4.43;;;;;;;14.72;93.71;100826.94;4942370;28;20059;-75
2022/06/08 00:55:10;;;;;;;8.05;4.50;;;;;;;14.72;93.43;100822.53;4947564;28;20039;-75
2022/06/08 00:57:45;;;;;;;13.40;5.67;;;;;;;14.69;93.61;100819.47;4958848;28;20034;-73
2022/06/08 01:00:28;;;;;;;8.93;5.50;;;;;;;14.66;93.84;100810.22;4944567;28;20032;-76
2022/06/08 01:02:53;;;;;;;6.65;5.00;;;;;;;14.62;94.03;100806.34;4958879;28;21087;-75
2022/06/08 01:05:58;;;;;;;10.77;5.22;;;;;;;14.60;94.30;100811.75;4930321;28;20038;-75
2022/06/08 01:08:38;;;;;;;7.78;4.97;;;;;;;14.58;94.12;100799.88;4945717;28;20035;-75
2022/06/08 01:11:11;;;;;;;8.55;5.40;;;;;;;14.56;94.19;100801.81;4959520;28;20111;-76
2022/06/08 01:13:38;;;;;;;;;;;;;;;14.52;94.46;100804.00;4924871;28;20042;-75
2022/06/08 01:16:11;;;;;;;7.18;5.10;;;;;;;14.50;94.35;100798.13;4943249;28;19922;-74
2022/06/08 01:18:38;;;;;;;6.75;4.47;;;;;;;14.48;94.20;100800.09;4941614;28;20432;-76
2022/06/08 01:21:22;;;;;;;7.38;4.90;;;;;;;14.46;94.36;100798.69;4960287;28;20038;-76
2022/06/08 01:24:09;;;;;;;6.32;4.75;;;;;;;14.42;94.23;100793.00;4941937;28;20042;-75
2022/06/08 01:26:43;;;;;;;6.50;4.60;;;;;;;14.41;94.25;100791.41;4945496;28;20046;-75
2022/06/08 01:29:14;;;;;;;7.00;4.82;;;;;;;14.37;94.29;100787.53;4958702;28;20027;-74
2022/06/08 01:32:03;;;;;;;7.40;4.10;;;;;;;14.33;94.35;100786.28;4927825;28;20046;-76
2022/06/08 01:35:03;;;;;;;8.30;5.25;;;;;;;14.29;94.42;100787.63;4941811;28;20078;-75
2022/06/08 01:37:52;;;;;;;7.28;4.53;;;;;;;14.27;94.62;100779.19;4943635;28;20035;-74
2022/06/08 01:40:53;;;;;;;9.60;5.30;;;;;;;14.27;94.99;100776.56;4942934;28;20058;-76
2022/06/08 01:43:47;;;;;;;10.10;5.25;;;;;;;14.23;95.21;100767.50;4926756;28;21380;-76
2022/06/08 01:46:37;;;;;;;8.82;5.32;;;;;;;14.20;95.60;100766.88;4939982;28;20039;-76
2022/06/08 01:49:13;;;;;;;8.13;5.28;;;;;;;14.16;95.73;100760.38;4958162;28;20433;-74
2022/06/08 01:52:11;;;;;;;9.05;4.75;;;;;;;14.14;95.86;100761.56;4942109;28;20039;-76
2022/06/08 01:54:46;;;;;;;10.50;4.90;;;;;;;14.10;96.24;100763.72;4932030;28;20627;-75
2022/06/08 01:57:30;;;;;;;10.00;5.55;;;;;;;14.07;96.53;100758.88;4943692;28;20035;-74
2022/06/08 02:00:09;;;;;;;6.88;4.90;;;;;;;14.07;96.67;100763.25;4929462;28;20093;-73
2022/06/08 02:03:28;;;;;;;8.13;5.80;;;;;;;14.00;96.45;100750.16;4947022;28;20039;-75
2022/06/08 02:06:08;;;;;;;18.80;5.93;;;;;;;13.95;96.58;100750.66;4895499;28;20143;-75
2022/06/08 02:08:46;;;;;;;7.45;5.28;;;;;;;13.94;96.88;100751.66;4943808;28;20192;-77
2022/06/08 02:11:42;;;;;;;6.80;5.03;;;;;;;13.93;96.72;100747.44;4942571;28;20120;-77
2022/06/08 02:14:18;;;;;;;7.30;5.00;;;;;;;13.90;96.67;100742.59;4942134;28;20047;-76
2022/06/08 02:16:50;;;;;;;6.30;4.65;;;;;;;13.90;96.60;100742.59;4945045;28;20504;-74
2022/06/08 02:19:39;;;;;;;7.65;5.22;;;;;;;13.89;96.01;100734.94;4956825;28;20118;-75
2022/06/08 02:22:18;;;;;;;9.00;5.90;;;;;;;13.86;96.02;100730.88;4923116;28;20047;-73
2022/06/08 02:24:51;;;;;;;13.80;5.13;;;;;;;13.83;96.10;100729.47;4961895;28;20039;-74
2022/06/08 02:27:37;;;;;;;8.98;4.90;;;;;;;13.82;96.08;100725.25;4940965;28;20176;-76
2022/06/08 02:30:15;;;;;;;6.45;4.25;;;;;;;13.80;96.06;100726.41;4944254;28;20523;-75
2022/06/08 02:35:41;;;;;;;11.75;4.53;;;;;;;13.74;95.99;100714.88;4940447;28;20438;-75
2022/06/08 02:38:10;;;;;;;7.00;4.53;;;;;;;13.73;96.07;100710.69;4940844;28;20039;-75
2022/06/08 02:40:41;;;;;;;8.68;4.90;;;;;;;13.70;96.03;100705.03;4958045;28;20043;-76
2022/06/08 02:43:12;;;;;;;7.70;5.30;;;;;;;13.65;96.18;100704.72;4943002;28;20555;-74
2022/06/08 02:45:42;;;;;;;7.00;4.85;;;;;;;13.64;96.26;100703.94;4958324;28;20027;-76
2022/06/08 02:48:13;;;;;;;6.50;4.60;;;;;;;13.62;96.34;100706.72;4939605;28;20040;-74
2022/06/08 02:50:56;;;;;;;7.85;4.60;;;;;;;13.60;96.29;100695.66;4958091;28;20040;-76
2022/06/08 02:53:28;;;;;;;6.07;4.68;;;;;;;13.61;96.32;100699.06;4957050;28;20035;-75
2022/06/08 02:56:13;;;;;;;7.75;4.55;;;;;;;13.59;96.21;100693.22;4941120;28;20049;-76
2022/06/08 02:59:03;;;;;;;10.30;4.53;;;;;;;13.57;95.91;100697.81;4942480;28;20039;-73
2022/06/08 03:01:36;;;;;;;6.95;4.35;;;;;;;13.56;95.80;100688.38;4942053;28;20500;-76
2022/06/08 03:04:16;;;;;;;6.03;4.13;;;;;;;13.53;95.42;100692.16;4942740;28;20031;-75
2022/06/08 03:07:10;;;;;;;5.88;3.58;;;;;;;13.51;95.55;100686.31;4957142;28;20432;-73
2022/06/08 03:09:37;;;;;;;9.57;4.90;;;;;;;13.51;95.35;100690.72;4955621;28;20040;-74
2022/06/08 03:12:14;;;;;;;9.15;4.93;;;;;;;13.46;95.48;100688.63;4960006;28;20035;-75
2022/06/08 03:14:42;;;;;;;5.63;4.20;;;;;;;13.41;95.60;100681.34;4959711;28;20369;-74
2022/06/08 03:17:10;;;;;;;9.45;4.95;;;;;;;13.39;95.53;100682.50;4958077;28;20960;-74
2022/06/08 03:19:38;;;;;;;7.18;4.93;;;;;;;13.33;96.05;100689.22;4960266;28;20032;-76
2022/06/08 03:22:05;;;;;;;8.93;5.30;;;;;;;13.31;96.22;100693.81;4940105;28;20427;-75
2022/06/08 03:24:32;;;;;;;9.65;5.60;;;;;;;13.30;96.40;100704.34;4959491;28;20031;-75
2022/06/08 03:27:03;;;;;;;7.35;5.13;;;;;;;13.30;96.54;100699.16;4940702;28;20035;-76
2022/06/08 03:29:31;;;;;;;10.15;4.38;;;;;;;13.28;96.71;100695.91;4939075;28;20131;-76
2022/06/08 03:31:57;;;;;;;9.80;3.78;;;;;;;13.28;96.96;100704.56;4942475;28;20541;-76
2022/06/08 03:34:23;;;;;;;7.40;4.35;;;;;;;13.27;97.17;100697.72;4943600;28;20038;-76
2022/06/08 03:36:49;;;;;;;5.57;4.13;;;;;;;13.27;97.55;100705.53;4940940;28;20046;-75
2022/06/08 03:39:16;;;;;;;7.28;3.92;;;;;;;13.28;97.77;100701.13;4928302;28;20028;-77
2022/06/08 03:41:44;;;;;;;7.82;4.50;;;;;;;13.29;97.98;100700.16;4943363;28;20039;-75
2022/06/08 03:44:11;;;;;;;11.57;4.13;;;;;;;13.23;98.35;100699.06;4927898;28;20070;-76
2022/06/08 03:46:41;;;;;;;7.68;4.82;;;;;;;13.22;98.94;100700.88;4945908;28;20155;-76
2022/06/08 03:49:08;;;;;;;7.78;4.38;;;;;;;13.24;99.48;100698.06;4940181;28;20114;-75
2022/06/08 03:51:37;;;;;;;9.43;5.05;;;;;;;13.27;99.75;100691.72;4946411;28;20327;-76
2022/06/08 03:54:08;;;;;;;8.68;5.00;;;;;;;13.29;100.00;100690.53;4946250;28;20110;-75
2022/06/08 03:56:35;;;;;;;10.45;4.65;;;;;;;13.29;100.00;100687.13;4948942;28;20131;-74
2022/06/08 03:59:01;;;;;;;9.27;5.55;;;;;;;13.36;100.00;100688.09;4942563;28;20035;-75
2022/06/08 04:01:28;;;;;;;14.45;5.47;;;;;;;13.31;100.00;100685.19;4946476;28;20425;-75
2022/06/08 04:03:58;;;;;;;15.02;5.30;;;;;;;13.36;100.00;100686.28;4961833;28;20240;-76
2022/06/08 04:06:26;;;;;;;12.00;5.75;;;;;;;13.41;100.00;100698.75;4957198;28;20039;-74
2022/06/08 04:08:53;;;;;;;13.43;5.13;;;;;;;13.35;100.00;100695.06;4931394;28;20031;-74
2022/06/08 04:11:20;;;;;;;17.50;5.30;;;;;;;13.49;100.00;100690.09;4945541;28;20122;-74
2022/06/08 04:13:45;;;;;;;9.52;5.25;;;;;;;13.50;100.00;100695.09;4949175;28;20046;-73
2022/06/08 04:16:16;;;;;;;14.48;5.13;;;;;;;13.50;100.00;100695.09;4946462;28;20066;-74
2022/06/08 04:18:43;;;;;;;8.27;4.78;;;;;;;13.47;100.00;100698.06;4934198;28;20039;-76
2022/06/08 04:21:12;;;;;;;10.10;4.95;;;;;;;13.55;100.00;100697.19;4928827;28;20042;-76
2022/06/08 04:24:01;;;;;;;12.27;5.13;;;;;;;13.55;100.00;100702.41;4944849;28;20049;-76
2022/06/08 04:26:28;;;;;;;15.43;5.32;;;;;;;13.56;100.00;100706.59;4942614;28;20035;-76
2022/06/08 04:29:17;;;;;;;16.23;5.38;;;;;;;13.55;100.00;100697.97;4944202;28;20400;-74
2022/06/08 04:31:44;;;;;;;11.77;4.97;;;;;;;13.60;100.00;100680.03;4930847;28;20039;-76
2022/06/08 04:34:15;;;;;;;8.73;4.63;;;;;;;13.61;100.00;100679.03;4941703;28;20031;-74
2022/06/08 04:36:42;;;;;;;14.77;5.22;;;;;;;13.63;100.00;100684.06;4944875;28;20036;-75
2022/06/08 04:39:10;;;;;;;10.10;4.53;;;;;;;13.71;100.00;100684.00;4942578;28;20035;-74
2022/06/08 04:41:38;;;;;;;13.65;5.43;;;;;;;13.70;100.00;100687.56;4956874;28;20069;-75
2022/06/08 04:44:04;;;;;;;13.18;5.25;;;;;;;13.78;100.00;100684.06;4943766;28;20039;-75
2022/06/08 04:46:31;;;;;;;10.32;5.88;;;;;;;13.80;100.00;100680.28;4957467;28;20027;-74
2022/06/08 04:48:58;;;;;;;16.13;5.45;;;;;;;13.89;100.00;100683.63;4943472;28;20038;-75
2022/06/08 04:51:26;;;;;;;8.15;5.03;;;;;;;14.04;100.00;100678.41;4958506;28;20067;-75
2022/06/08 04:53:53;;;;;;;11.80;5.25;;;;;;;14.13;100.00;100677.31;4956942;28;20063;-73
2022/06/08 04:56:21;;;;;;;9.77;5.88;;;;;;;14.23;100.00;100679.63;4956478;28;20039;-75
2022/06/08 04:58:54;;;;;;;7.65;5.45;;;;;;;14.29;100.00;100676.28;4944551;28;20066;-76
2022/06/08 05:01:21;;;;;;;14.25;4.82;;;;;;;14.41;100.00;100672.22;4927335;28;20039;-76
2022/06/08 05:03:48;;;;;;;10.23;5.38;;;;;;;14.63;100.00;100663.63;4945513;28;20031;-75
2022/06/08 05:06:15;;;;;;;11.52;5.28;;;;;;;14.70;100.00;100661.91;4932237;28;20033;-75
2022/06/08 05:08:40;;;;;;;12.05;5.32;;;;;;;14.79;100.00;100650.34;4944763;28;20404;-75
2022/06/08 05:11:08;;;;;;;8.23;4.47;;;;;;;14.81;99.81;100644.94;4960126;28;20051;-77
2022/06/08 05:13:36;;;;;;;9.60;4.50;;;;;;;14.88;99.63;100651.00;4932019;28;20049;-76
2022/06/08 05:16:06;;;;;;;10.15;4.47;;;;;;;15.03;99.09;100640.50;4948995;28;20071;-75
2022/06/08 05:18:34;;;;;;;10.50;4.07;;;;;;;15.05;98.24;100644.53;4940690;28;20085;-76
2022/06/08 05:21:02;;;;;;;9.80;4.68;;;;;;;15.08;98.67;100651.19;4942348;28;20039;-76
2022/06/08 05:23:36;;;;;;;10.52;4.00;;;;;;;15.06;97.33;100646.16;4935113;28;20039;-76
2022/06/08 05:26:09;;;;;;;5.63;3.65;;;;;;;15.03;97.99;100645.72;4943897;28;20046;-76
2022/06/08 05:28:36;;;;;;;11.63;3.70;;;;;;;15.08;97.35;100632.91;4962953;28;20038;-76
2022/06/08 05:31:02;;;;;;;10.88;3.55;;;;;;;15.08;96.97;100630.28;4931063;28;20035;-76
2022/06/08 05:33:32;;;;;;;12.40;3.42;;;;;;;15.12;96.97;100629.72;4949242;28;20042;-76
2022/06/08 05:36:04;;;;;;;13.07;4.13;;;;;;;15.16;96.67;100628.34;4947814;28;20023;-77
2022/06/08 05:38:30;;;;;;;9.35;3.30;;;;;;;15.29;95.66;100622.41;4947774;28;20050;-73
2022/06/08 05:40:56;;;;;;;14.02;4.30;;;;;;;15.28;95.99;100622.59;4925732;28;20082;-76
2022/06/08 05:43:23;;;;;;;7.90;3.03;;;;;;;15.36;96.30;100619.84;4945981;28;20354;-75
2022/06/08 05:45:52;;;;;;;10.75;4.30;;;;;;;15.45;95.35;100617.91;4959984;28;20387;-76
2022/06/08 05:48:19;;;;;;;9.93;3.70;;;;;;;15.49;95.93;100609.47;4943325;28;20024;-75
2022/06/08 05:50:47;;;;;;;7.75;3.65;;;;;;;15.56;96.26;100601.66;4944623;28;20083;-75
2022/06/08 05:53:16;;;;;;;8.48;3.17;;;;;;;15.64;95.74;100601.50;4945021;28;20036;-76
2022/06/08 05:55:43;;;;;;;9.20;3.05;;;;;;;15.74;95.30;100595.94;4944497;28;20534;-77
2022/06/08 05:58:09;;;;;;;9.88;3.50;;;;;;;15.75;94.02;100590.53;4945623;28;20039;-77
2022/06/08 06:00:38;;;;;;;5.50;2.72;;;;;;;15.79;93.49;100596.16;4961052;28;20091;-76
2022/06/08 06:03:04;;;;;;;7.75;2.42;;;;;;;15.79;93.70;100590.16;4948251;28;20117;-77
2022/06/08 06:05:32;;;;;;;10.02;3.58;;;;;;;15.75;93.87;100590.53;4945853;28;20489;-76
2022/06/08 06:08:01;;;;;;;6.85;3.33;;;;;;;15.68;94.59;100589.66;4943509;28;20031;-76
2022/06/08 06:10:35;;;;;;;10.65;3.22;;;;;;;15.87;94.56;100592.56;4947092;28;20053;-76
2022/06/08 06:13:02;;;;;;;12.38;3.85;;;;;;;15.87;94.29;100588.16;4943503;28;20480;-76
2022/06/08 06:15:40;;;;;;;10.65;3.67;;;;;;;15.91;93.59;100586.75;4932802;28;20036;-76
2022/06/08 06:18:06;;;;;;;10.50;3.92;;;;;;;15.94;93.43;100588.97;4946120;28;20075;-75
2022/06/08 06:20:33;;;;;;;8.35;2.83;;;;;;;16.03;92.67;100589.63;4945016;28;20031;-76
2022/06/08 06:23:19;;;;;;;9.30;2.75;;;;;;;16.15;91.97;100576.78;4949655;28;20074;-76
2022/06/08 06:25:56;;;;;;;9.00;2.40;;;;;;;16.20;91.11;100577.00;4944801;28;20055;-75
2022/06/08 06:28:45;;;;;;;7.80;2.63;;;;;;;16.27;90.61;100575.16;4942512;28;20819;-77
2022/06/08 06:31:44;;;;;;;5.75;3.13;;;;;;;16.41;90.25;100576.00;4923077;28;20645;-75
2022/06/08 06:34:15;;;;;;;5.87;3.33;;;;;;;16.48;89.03;100568.16;4939656;28;20078;-76
2022/06/08 06:36:41;;;;;;;8.05;2.53;;;;;;;16.58;88.83;100567.78;4939444;28;20035;-77
2022/06/08 06:39:07;;;;;;;8.02;2.60;;;;;;;16.60;89.24;100565.75;4944166;28;20409;-76
2022/06/08 06:41:36;;;;;;;7.07;2.40;;;;;;;16.80;89.45;100558.72;4949860;28;20046;-76
2022/06/08 06:44:03;;;;;;;10.13;4.28;;;;;;;16.97;87.97;100556.50;4929190;28;20118;-76
2022/06/08 06:46:51;;;;;;;5.68;2.88;;;;;;;17.05;87.18;100555.47;4946656;28;20058;-77
2022/06/08 06:49:24;;;;;;;4.97;2.27;;;;;;;17.15;86.96;100557.69;4945005;28;20497;-76
2022/06/08 06:51:53;;;;;;;10.02;2.45;;;;;;;17.27;86.11;100558.63;4929519;28;20930;-76
2022/06/08 06:54:19;;;;;;;3.63;2.08;;;;;;;17.29;85.88;100559.22;4950808;28;20086;-77
2022/06/08 06:56:47;;;;;;;5.55;2.20;;;;;;;17.38;86.14;100557.19;4961656;28;20523;-78
2022/06/08 06:59:17;;;;;;;6.25;2.53;;;;;;;17.45;85.35;100556.16;4963065;28;20035;-77
2022/06/08 07:01:46;;;;;;;8.82;2.30;;;;;;;17.55;85.02;100547.06;4929365;28;20481;-76
2022/06/08 07:04:11;;;;;;;6.60;2.10;;;;;;;17.49;85.39;100551.31;4943285;28;20804;-77
2022/06/08 07:06:37;;;;;;;4.07;2.00;;;;;;;17.47;85.78;100542.88;4959440;28;20074;-77
2022/06/08 07:09:04;;;;;;;3.35;1.70;;;;;;;17.53;85.66;100544.66;4949821;28;20031;-77
2022/06/08 07:11:40;;;;;;;5.47;1.42;;;;;;;17.42;84.31;100540.88;4951868;28;20458;-76
2022/06/08 07:14:26;;;;;;;4.88;1.67;;;;;;;17.47;84.01;100540.25;4949626;28;20035;-77
2022/06/08 07:16:58;;;;;;;5.50;1.67;;;;;;;17.48;83.60;100532.19;4956273;28;20041;-77
2022/06/08 07:19:29;;;;;;;2.75;1.45;;;;;;;17.41;84.17;100530.59;4947168;28;20114;-76
2022/06/08 07:21:55;;;;;;;7.85;1.60;;;;;;;17.33;83.60;100531.63;4947471;28;20027;-77
2022/06/08 07:24:24;;;;;;;3.55;1.55;;;;;;;17.38;83.67;100533.63;4946191;28;20027;-77
2022/06/08 07:26:51;;;;;;;3.47;1.50;;;;;;;17.49;84.42;100541.63;4940891;28;20178;-76
2022/06/08 07:29:17;;;;;;;5.13;1.95;;;;;;;17.42;83.95;100540.06;4945305;28;20039;-76
2022/06/08 07:31:43;;;;;;;4.32;1.45;;;;;;;17.44;83.83;100535.41;4943507;28;20061;-77
2022/06/08 07:34:11;;;;;;;6.75;1.40;;;;;;;17.41;82.90;100535.84;4952831;28;20079;-76
2022/06/08 07:36:37;;;;;;;6.25;1.10;;;;;;;17.33;82.18;100534.25;4944405;28;20441;-76
2022/06/08 07:39:03;;;;;;;5.10;1.23;;;;;;;17.46;80.84;100533.38;4942783;28;20037;-77
2022/06/08 07:41:29;;;;;;;3.20;1.00;;;;;;;17.44;80.57;100532.78;4942862;28;20050;-77
2022/06/08 07:43:54;;;;;;;2.75;1.10;;;;;;;17.55;80.94;100529.50;4943618;28;20035;-76
2022/06/08 07:46:21;;;;;;;3.22;1.08;;;;;;;17.46;81.87;100523.72;4948168;28;20101;-76
2022/06/08 07:51:32;;;;;;;3.67;1.23;;;;;;;17.60;81.35;100516.59;4939902;28;20039;-76
2022/06/08 07:53:59;;;;;;;4.63;1.45;;;;;;;17.70;80.52;100526.63;4945328;28;20031;-77
2022/06/08 07:56:24;;;;;;;4.90;1.30;;;;;;;17.64;80.69;100522.22;4957418;28;20511;-76
2022/06/08 07:58:50;;;;;;;6.50;1.95;;;;;;;17.72;80.87;100521.97;4949086;28;20042;-76
2022/06/08 08:01:15;;;;;;;3.92;1.38;;;;;;;17.88;79.92;100520.72;4926076;28;20087;-77
2022/06/08 08:03:41;;;;;;;2.65;1.30;;;;;;;18.07;79.07;100511.13;4944490;28;20860;-77
2022/06/08 08:06:07;;;;;;;4.15;1.20;;;;;;;18.20;79.73;100512.84;4961679;28;20058;-77
2022/06/08 08:08:33;;;;;;;6.43;1.70;;;;;;;18.34;78.04;100516.16;4941116;28;20443;-76
2022/06/08 08:10:59;;;;;;;5.63;1.92;;;;;;;18.39;77.57;100513.72;4944454;28;20123;-76
2022/06/08 08:13:24;;;;;;;9.18;1.33;;;;;;;18.50;76.59;100507.75;4933858;28;20034;-76
2022/06/08 08:15:51;;;;;;;1.45;0.93;;;;;;;18.83;77.66;100507.47;4945364;28;20035;-77
2022/06/08 08:18:17;;;;;;;3.63;1.13;;;;;;;18.96;75.96;100509.16;4941956;28;20103;-76
2022/06/08 08:20:43;;;;;;;4.38;1.30;;;;;;;19.01;75.49;100506.69;4949876;28;20032;-77
2022/06/08 08:23:08;;;;;;;4.63;1.95;;;;;;;19.06;75.00;100496.34;4943405;28;20031;-77
2022/06/08 08:25:35;;;;;;;4.85;1.23;;;;;;;19.13;74.90;100500.69;4948265;28;20829;-76
2022/06/08 08:28:01;;;;;;;1.38;0.85;;;;;;;19.42;75.31;100494.69;4932401;28;20749;-77
2022/06/08 08:30:28;;;;;;;2.33;1.25;;;;;;;19.87;72.17;100490.84;4956933;28;20062;-76
2022/06/08 08:32:54;;;;;;;1.58;0.98;;;;;;;20.43;71.29;100492.19;4940333;28;20038;-76
2022/06/08 08:35:21;;;;;;;1.23;1.00;;;;;;;21.06;69.25;100489.06;4947310;28;21052;-77
2022/06/08 08:37:47;;;;;;;3.65;0.93;;;;;;;21.14;68.02;100481.63;4952769;28;20733;-77
2022/06/08 08:40:24;;;;;;;3.75;1.10;;;;;;;21.69;65.71;100485.56;4948515;28;20039;-77
2022/06/08 08:42:50;;;;;;;2.08;0.90;;;;;;;21.65;64.57;100473.88;4948804;28;20085;-77
2022/06/08 08:45:15;;;;;;;8.65;1.00;;;;;;;21.65;65.91;100473.88;4947620;28;20031;-76
2022/06/08 08:47:54;;;;;;;7.97;1.05;;;;;;;21.69;65.72;100463.66;4946250;28;20374;-77
2022/06/08 08:50:30;;;;;;;5.60;1.00;;;;;;;21.24;64.52;100459.91;4949072;28;20455;-78
2022/06/08 08:53:26;;;;;;;4.47;1.20;;;;;;;21.25;66.77;100463.34;4951313;28;20063;-77
2022/06/08 08:56:03;;;;;;;5.47;1.38;;;;;;;21.15;63.25;100458.69;4930047;28;20042;-77
2022/06/08 08:58:38;;;;;;;3.63;1.05;;;;;;;21.06;65.52;100460.91;4944626;28;20043;-78
2022/06/08 09:01:19;;;;;;;7.78;1.13;;;;;;;20.81;64.37;100461.19;4947906;28;20691;-77
2022/06/08 09:03:49;;;;;;;4.50;1.40;;;;;;;20.86;66.62;100460.50;4961091;28;20035;-77
2022/06/08 09:06:18;;;;;;;4.75;1.33;;;;;;;21.07;65.12;100451.94;4945617;28;20059;-77
2022/06/08 09:08:50;;;;;;;4.50;1.40;;;;;;;21.09;64.34;100449.88;4950926;28;20428;-76
2022/06/08 09:11:21;;;;;;;2.53;1.05;;;;;;;21.40;65.82;100450.47;4941692;28;20031;-76
2022/06/08 09:13:50;;;;;;;2.90;1.23;;;;;;;21.52;63.37;100445.97;4950039;28;20039;-77
2022/06/08 09:16:31;;;;;;;7.03;1.30;;;;;;;21.60;65.56;100454.53;4958389;28;20023;-80
2022/06/08 09:18:57;;;;;;;3.67;1.23;;;;;;;21.56;65.77;100448.94;4963092;28;20063;-77
2022/06/08 09:21:26;;;;;;;10.25;2.03;;;;;;;21.53;62.95;100438.84;4947094;28;20483;-77
2022/06/08 09:23:56;;;;;;;6.57;1.33;;;;;;;21.26;64.01;100438.59;4951241;28;20061;-76
2022/06/08 09:26:24;;;;;;;7.45;1.40;;;;;;;20.92;65.89;100435.84;4945490;28;20108;-78
2022/06/08 09:29:29;;;;;;;4.93;1.35;;;;;;;20.76;66.38;100442.66;4950550;28;20079;-77
2022/06/08 09:31:56;;;;;;;3.13;1.55;;;;;;;20.70;67.42;100444.38;4930900;28;20070;-77
2022/06/08 09:34:34;;;;;;;6.10;1.27;;;;;;;20.41;68.97;100446.88;4947488;28;20160;-77
2022/06/08 09:37:26;;;;;;;9.85;2.30;;;;;;;20.15;75.11;100450.75;4961303;28;20096;-80
2022/06/08 09:39:55;;;;;;;8.48;1.70;;;;;;;19.93;75.05;100447.06;4964254;28;20035;-77
2022/06/08 09:42:35;;;;;;;7.80;2.25;;;;;;;19.73;77.35;100447.38;4945944;28;20031;-76
2022/06/08 09:45:29;;;;;;;8.30;1.70;;;;;;;19.53;77.03;100439.72;4952901;28;20023;-76
2022/06/08 09:51:27;;;;;;;10.48;2.10;;;;;;;19.46;79.05;100442.47;4958576;28;20043;-77
2022/06/08 09:54:17;;;;;;;9.75;1.70;;;;;;;19.35;80.44;100443.22;4944702;28;20031;-75
2022/06/08 09:57:08;;;;;;;6.85;1.85;;;;;;;19.29;80.31;100438.84;4960372;28;20031;-76
2022/06/08 09:59:52;;;;;;;5.47;1.42;;;;;;;19.23;80.21;100445.78;4942950;28;20110;-75
2022/06/08 10:02:39;;;;;;;7.72;1.48;;;;;;;19.08;79.64;100442.75;4944704;28;20522;-76
2022/06/08 10:05:42;;;;;;;11.23;2.35;;;;;;;18.83;78.93;100462.81;4944181;28;20049;-76
2022/06/08 10:08:14;;;;;;;;;;;;;;;18.76;78.36;100458.63;4942539;28;20656;-76
2022/06/08 10:14:08;;;;;;;6.45;1.25;;;;;;;18.58;80.35;100462.06;4944578;28;20127;-76
2022/06/08 10:16:38;;;;;;;7.32;1.92;;;;;;;18.65;80.69;100462.78;4928943;28;20039;-75
2022/06/08 10:19:06;;;;;;;10.00;2.10;;;;;;;18.48;81.76;100458.09;4944827;28;20404;-75
2022/06/08 10:21:38;;;;;;;7.35;2.42;;;;;;;18.48;82.83;100471.22;4942838;28;20031;-75
2022/06/08 10:24:12;;;;;;;7.53;1.95;;;;;;;18.47;83.16;100466.97;4957550;28;20039;-78
2022/06/08 10:26:43;;;;;;;10.25;1.65;;;;;;;18.48;84.04;100458.09;4945616;28;20043;-76
2022/06/08 10:29:17;;;;;;;10.27;1.85;;;;;;;18.45;85.01;100455.09;4935230;29;20074;-75
2022/06/08 10:31:55;;;;;;;6.93;1.52;;;;;;;18.40;85.37;100461.00;4934043;28;20123;-77
2022/06/08 10:34:27;;;;;;;6.38;1.70;;;;;;;18.37;85.45;100458.00;4961231;28;20048;-76
2022/06/08 10:37:04;;;;;;;4.05;1.35;;;;;;;18.39;85.83;100455.97;4946291;28;20035;-77
2022/06/08 10:39:32;;;;;;;5.28;2.13;;;;;;;18.43;86.04;100462.38;4948701;28;20031;-77
2022/06/08 10:45:27;;;;;;;9.57;1.75;;;;;;;18.42;86.65;100458.13;4941393;28;20035;-77
2022/06/08 10:48:01;;;;;;;8.95;2.08;;;;;;;18.43;86.10;100455.31;4943887;28;20026;-76
2022/06/08 10:50:31;;;;;;;8.15;1.95;;;;;;;18.42;84.38;100451.09;4946731;28;20121;-77
2022/06/08 10:54:53;;;;;;;6.55;2.67;;;;;;;18.18;83.21;100460.56;4953260;28;20034;-76
2022/06/08 10:55:46;;;;;;;4.75;1.80;;;;;;;18.04;85.42;100457.25;4942462;28;20404;-77
2022/06/08 10:58:14;;;;;;;8.52;2.00;;;;;;;17.79;86.38;100462.44;4947384;28;20035;-76
2022/06/08 11:00:51;;;;;;;14.18;2.80;;;;;;;17.75;84.48;100465.69;4947441;28;20032;-77
2022/06/08 11:03:40;;;;;;;7.05;1.95;;;;;;;17.46;86.53;100463.44;4963057;28;20558;-76
2022/06/08 11:06:31;;;;;;;8.43;2.00;;;;;;;17.50;86.71;100467.25;4926062;28;20979;-77
2022/06/08 11:08:57;;;;;;;4.25;1.60;;;;;;;17.54;87.53;100461.56;4966138;28;20038;-77
2022/06/08 11:11:41;;;;;;;9.93;2.28;;;;;;;17.40;88.52;100466.06;4946778;28;20031;-76
2022/06/08 11:14:48;;;;;;;9.00;2.20;;;;;;;17.29;88.84;100459.66;4951849;28;20037;-76
2022/06/08 11:17:41;;;;;;;9.95;2.35;;;;;;;17.35;88.09;100460.66;4952793;28;20043;-75
2022/06/08 11:20:20;;;;;;;6.80;1.80;;;;;;;17.35;88.18;100456.25;4958103;28;20035;-76
2022/06/08 11:22:53;;;;;;;9.38;1.55;;;;;;;17.34;87.20;100465.09;4948283;28;20389;-77
2022/06/08 11:25:26;;;;;;;10.57;2.03;;;;;;;17.29;88.46;100465.72;4950433;28;20098;-77
2022/06/08 11:28:26;;;;;;;8.45;1.88;;;;;;;17.36;88.29;100462.28;4932697;28;20088;-77
2022/06/08 11:30:53;;;;;;;11.40;3.03;;;;;;;17.31;88.01;100468.94;4943597;28;20531;-76
2022/06/08 11:33:20;;;;;;;6.95;2.40;;;;;;;17.26;88.16;100465.34;4945837;28;20061;-77
2022/06/08 11:36:11;;;;;;;7.88;1.92;;;;;;;17.10;86.77;100464.81;4943375;28;20032;-76
2022/06/08 11:38:57;;;;;;;8.40;1.85;;;;;;;17.08;88.03;100466.81;4950406;28;20215;-77
2022/06/08 11:41:28;;;;;;;8.25;2.00;;;;;;;17.15;89.91;100466.78;4946210;28;20058;-77
2022/06/08 11:43:53;;;;;;;9.95;2.50;;;;;;;17.09;88.92;100471.03;4946596;28;20042;-75
2022/06/08 11:46:40;;;;;;;10.05;2.17;;;;;;;17.21;89.73;100468.56;4941570;28;20046;-76
2022/06/08 11:49:26;;;;;;;9.60;1.98;;;;;;;17.20;90.54;100464.34;4945294;28;20118;-76
2022/06/08 11:51:52;;;;;;;5.82;2.63;;;;;;;17.25;90.87;100463.72;4945325;28;20042;-75
2022/06/08 11:54:25;;;;;;;10.65;2.17;;;;;;;17.28;91.06;100463.31;4944200;28;20031;-76
2022/06/08 11:56:53;;;;;;;7.13;2.08;;;;;;;17.35;91.71;100473.75;4942190;28;20535;-75
2022/06/08 11:59:20;;;;;;;8.63;1.88;;;;;;;17.30;89.85;100469.94;4941017;28;20039;-75
2022/06/08 12:02:01;;;;;;;7.47;2.53;;;;;;;17.34;89.95;100470.34;4945526;28;20509;-76
2022/06/08 12:04:30;;;;;;;6.68;1.70;;;;;;;17.30;90.95;100461.28;4942100;28;20044;-76